createdAt,value
2023-10-24T00:00:07.779Z,65.40
2023-10-24T00:02:35.113Z,65.08
2023-10-24T00:05:01.974Z,65.39
2023-10-24T00:07:28.856Z,65.01
2023-10-24T00:09:55.731Z,65.19
2023-10-24T00:12:22.487Z,64.94
2023-10-24T00:14:49.993Z,65.19
2023-10-24T00:17:16.876Z,64.95
2023-10-24T00:19:45.955Z,64.85
2023-10-24T00:22:12.780Z,65.10
2023-10-24T00:24:39.678Z,64.87
2023-10-24T00:27:06.647Z,65.15
2023-10-24T00:29:33.497Z,65.35
2023-10-24T00:32:00.372Z,65.21
2023-10-24T00:34:27.319Z,65.28
2023-10-24T00:36:54.203Z,64.99
2023-10-24T00:39:20.973Z,65.32
2023-10-24T00:41:51.352Z,65.63
2023-10-24T00:44:18.923Z,65.12
2023-10-24T00:46:45.908Z,65.71
2023-10-24T00:49:12.935Z,65.84
2023-10-24T00:51:42.108Z,65.37
2023-10-24T00:54:11.520Z,65.49
2023-10-24T00:56:39.681Z,65.90
2023-10-24T00:59:07.680Z,65.51
2023-10-24T01:01:35.652Z,65.96
2023-10-24T01:06:29.965Z,65.83
2023-10-24T01:08:57.184Z,65.54
2023-10-24T01:11:25.353Z,65.57
2023-10-24T01:13:52.225Z,65.38
2023-10-24T01:16:19.772Z,65.75
2023-10-24T01:18:46.636Z,65.56
2023-10-24T01:21:14.253Z,65.70
2023-10-24T01:23:41.687Z,65.74
2023-10-24T01:26:11.430Z,65.67
2023-10-24T01:28:38.608Z,65.85
2023-10-24T01:31:05.428Z,65.76
2023-10-24T01:33:32.262Z,65.42
2023-10-24T01:35:59.066Z,65.80
2023-10-24T01:38:25.877Z,65.99
2023-10-24T01:40:53.106Z,65.31
2023-10-24T01:43:21.283Z,65.60
2023-10-24T01:45:48.744Z,65.59
2023-10-24T01:48:15.535Z,65.49
2023-10-24T01:50:42.338Z,65.58
2023-10-24T01:53:09.142Z,65.67
2023-10-24T01:55:35.947Z,65.83
2023-10-24T01:58:02.863Z,65.74
2023-10-24T02:00:29.642Z,65.82
2023-10-24T02:02:56.650Z,65.91
2023-10-24T02:05:23.491Z,65.89
2023-10-24T02:07:50.585Z,65.96
2023-10-24T02:10:17.655Z,65.74
2023-10-24T02:12:44.522Z,65.82
2023-10-24T02:15:11.941Z,65.95
2023-10-24T02:17:39.810Z,65.96
2023-10-24T02:20:08.559Z,66.34
2023-10-24T02:22:35.540Z,66.04
2023-10-24T02:25:02.483Z,65.96
2023-10-24T02:27:29.330Z,66.15
2023-10-24T02:29:56.102Z,65.81
2023-10-24T02:32:23.367Z,66.06
2023-10-24T02:34:50.871Z,65.96
2023-10-24T02:37:17.973Z,65.88
2023-10-24T02:39:44.855Z,65.91
2023-10-24T02:42:11.624Z,66.05
2023-10-24T02:44:38.494Z,66.46
2023-10-24T02:47:05.441Z,66.21
2023-10-24T02:49:33.563Z,66.00
2023-10-24T02:52:00.332Z,66.25
2023-10-24T02:54:27.083Z,66.04
2023-10-24T02:56:58.872Z,66.08
2023-10-24T02:59:25.615Z,66.04
2023-10-24T03:01:52.914Z,65.67
2023-10-24T03:04:19.647Z,66.22
2023-10-24T03:06:46.433Z,65.78
2023-10-24T03:09:13.262Z,65.79
2023-10-24T03:11:40.110Z,66.07
2023-10-24T03:14:08.647Z,66.26
2023-10-24T03:16:35.960Z,65.85
2023-10-24T03:19:02.732Z,66.20
2023-10-24T03:21:29.548Z,66.12
2023-10-24T03:23:57.050Z,66.14
2023-10-24T03:26:26.592Z,66.21
2023-10-24T03:28:53.408Z,66.09
2023-10-24T03:31:20.302Z,66.41
2023-10-24T03:33:47.204Z,66.21
2023-10-24T03:36:16.671Z,66.32
2023-10-24T03:38:44.642Z,65.98
2023-10-24T03:41:11.391Z,66.33
2023-10-24T03:43:38.372Z,66.23
2023-10-24T03:46:09.025Z,66.35
2023-10-24T03:48:36.364Z,66.15
2023-10-24T03:51:03.223Z,66.09
2023-10-24T03:53:30.574Z,66.15
2023-10-24T03:56:00.904Z,66.19
2023-10-24T03:58:28.490Z,66.11
2023-10-24T04:00:56.115Z,66.32
2023-10-24T04:03:23.317Z,66.50
2023-10-24T04:05:50.332Z,66.84
2023-10-24T04:08:17.268Z,66.48
2023-10-24T04:10:43.994Z,66.37
2023-10-24T04:13:10.834Z,66.45
2023-10-24T04:15:37.969Z,66.23
2023-10-24T04:18:07.654Z,66.49
2023-10-24T04:20:34.504Z,66.59
2023-10-24T04:23:04.068Z,66.13
2023-10-24T04:25:31.728Z,66.04
2023-10-24T04:28:00.209Z,66.13
2023-10-24T04:30:28.696Z,66.10
2023-10-24T04:32:56.389Z,66.12
2023-10-24T04:35:23.348Z,66.01
2023-10-24T04:37:50.209Z,66.24
2023-10-24T04:40:17.196Z,66.29
2023-10-24T04:42:43.990Z,66.86
2023-10-24T04:45:10.830Z,66.81
2023-10-24T04:47:37.615Z,66.42
2023-10-24T04:50:06.589Z,66.76
2023-10-24T04:52:33.380Z,66.47
2023-10-24T04:55:00.208Z,66.90
2023-10-24T04:57:26.966Z,66.29
2023-10-24T04:59:53.789Z,66.71
2023-10-24T05:02:20.630Z,66.60
2023-10-24T05:04:47.481Z,66.49
2023-10-24T05:07:14.890Z,66.64
2023-10-24T05:09:44.132Z,66.35
2023-10-24T05:12:12.403Z,66.32
2023-10-24T05:14:39.331Z,66.25
2023-10-24T05:17:07.206Z,66.23
2023-10-24T05:19:34.023Z,66.25
2023-10-24T05:22:00.762Z,66.47
2023-10-24T05:24:27.484Z,66.39
2023-10-24T05:26:55.826Z,66.57
2023-10-24T05:29:25.085Z,66.58
2023-10-24T05:31:52.121Z,66.46
2023-10-24T05:34:19.101Z,66.71
2023-10-24T05:36:45.980Z,66.53
2023-10-24T05:39:12.731Z,66.55
2023-10-24T05:41:40.017Z,66.50
2023-10-24T05:44:06.764Z,66.65
2023-10-24T05:46:33.568Z,66.75
2023-10-24T05:49:01.947Z,67.08
2023-10-24T05:51:33.928Z,67.09
2023-10-24T05:54:01.578Z,67.01
2023-10-24T05:56:28.348Z,67.25
2023-10-24T05:58:55.953Z,67.32
2023-10-24T06:01:23.620Z,67.15
2023-10-24T06:03:50.717Z,67.10
2023-10-24T06:06:25.391Z,67.08
2023-10-24T06:08:53.077Z,67.02
2023-10-24T06:11:20.374Z,66.86
2023-10-24T06:13:47.224Z,66.62
2023-10-24T06:16:18.802Z,66.63
2023-10-24T06:18:45.702Z,66.43
2023-10-24T06:21:13.308Z,66.28
2023-10-24T06:23:40.118Z,66.27
2023-10-24T06:26:18.011Z,66.19
2023-10-24T06:28:46.181Z,66.34
2023-10-24T06:31:14.325Z,65.82
2023-10-24T06:33:41.866Z,66.15
2023-10-24T06:36:09.048Z,66.87
2023-10-24T06:38:35.860Z,66.53
2023-10-24T06:41:03.245Z,65.99
2023-10-24T06:43:30.105Z,65.16
2023-10-24T06:45:56.969Z,64.43
2023-10-24T06:48:23.746Z,63.71
2023-10-24T06:50:50.570Z,62.46
2023-10-24T06:53:17.315Z,61.63
2023-10-24T06:55:44.093Z,60.69
2023-10-24T06:58:10.938Z,58.72
2023-10-24T07:00:37.701Z,57.76
2023-10-24T07:03:05.921Z,56.60
2023-10-24T07:05:34.440Z,56.14
2023-10-24T07:08:01.259Z,56.63
2023-10-24T07:10:28.127Z,56.69
2023-10-24T07:12:54.955Z,55.88
2023-10-24T07:15:21.868Z,55.17
2023-10-24T07:17:48.660Z,54.10
2023-10-24T07:20:15.462Z,53.04
2023-10-24T07:22:42.859Z,51.47
2023-10-24T07:25:10.129Z,50.62
2023-10-24T07:27:36.937Z,49.74
2023-10-24T07:30:03.959Z,48.84
2023-10-24T07:32:30.774Z,47.92
2023-10-24T07:34:57.872Z,47.05
2023-10-24T07:37:25.747Z,46.79
2023-10-24T07:39:52.961Z,45.54
2023-10-24T07:42:19.907Z,44.88
2023-10-24T07:44:46.718Z,43.79
2023-10-24T07:47:13.621Z,43.05
2023-10-24T07:49:40.740Z,42.43
2023-10-24T07:52:08.248Z,41.70
2023-10-24T07:54:35.815Z,41.42
2023-10-24T07:57:06.028Z,41.43
2023-10-24T07:59:33.105Z,41.14
2023-10-24T08:02:00.956Z,40.84
2023-10-24T08:04:28.600Z,40.55
2023-10-24T08:06:55.779Z,40.19
2023-10-24T08:09:22.802Z,40.21
2023-10-24T08:11:49.645Z,39.78
2023-10-24T08:14:17.107Z,39.62
2023-10-24T08:16:43.988Z,39.71
2023-10-24T08:19:10.978Z,39.49
2023-10-24T08:21:37.761Z,38.82
2023-10-24T08:24:05.247Z,38.76
2023-10-24T08:26:32.196Z,38.08
2023-10-24T08:28:59.174Z,38.00
2023-10-24T08:31:26.427Z,37.52
2023-10-24T08:33:53.524Z,37.57
2023-10-24T08:36:20.372Z,37.44
2023-10-24T08:38:48.091Z,36.98
2023-10-24T08:41:15.930Z,36.76
2023-10-24T08:43:44.193Z,36.90
2023-10-24T08:46:11.885Z,37.20
2023-10-24T08:48:40.234Z,37.52
2023-10-24T08:51:07.312Z,37.48
2023-10-24T08:53:34.195Z,37.41
2023-10-24T08:56:03.401Z,37.57
2023-10-24T08:58:33.542Z,37.79
2023-10-24T09:01:01.847Z,38.01
2023-10-24T09:03:30.330Z,38.02
2023-10-24T09:05:58.537Z,38.54
2023-10-24T09:08:26.284Z,39.06
2023-10-24T09:10:53.332Z,39.16
2023-10-24T09:13:20.195Z,40.03
2023-10-24T09:16:05.844Z,40.72
2023-10-24T09:18:35.445Z,40.56
2023-10-24T09:21:02.588Z,40.96
2023-10-24T09:23:29.446Z,41.51
2023-10-24T09:25:56.221Z,41.78
2023-10-24T09:28:24.843Z,41.87
2023-10-24T09:30:51.662Z,41.81
2023-10-24T09:33:18.641Z,41.96
2023-10-24T09:35:54.821Z,41.76
2023-10-24T09:38:31.727Z,41.61
2023-10-24T09:40:58.529Z,41.78
2023-10-24T09:43:25.609Z,41.63
2023-10-24T09:45:53.468Z,42.00
2023-10-24T09:48:23.518Z,42.01
2023-10-24T09:50:51.874Z,42.23
2023-10-24T09:53:21.400Z,42.40
2023-10-24T09:55:50.976Z,42.55
2023-10-24T09:58:19.621Z,42.46
2023-10-24T10:00:49.900Z,42.54
2023-10-24T10:03:17.647Z,42.62
2023-10-24T10:05:46.184Z,42.58
2023-10-24T10:08:16.536Z,42.36
2023-10-24T10:10:46.823Z,42.26
2023-10-24T10:13:17.642Z,42.35
2023-10-24T10:16:05.371Z,42.49
2023-10-24T10:18:53.465Z,42.54
2023-10-24T10:21:45.634Z,42.24
2023-10-24T10:24:25.918Z,42.64
2023-10-24T10:27:01.148Z,42.33
2023-10-24T10:30:12.848Z,42.48
2023-10-24T10:33:06.304Z,42.40
2023-10-24T10:36:04.054Z,42.76
2023-10-24T10:38:41.946Z,42.74
2023-10-24T10:41:29.267Z,42.57
2023-10-24T10:44:00.801Z,42.95
2023-10-24T10:46:29.382Z,43.05
2023-10-24T10:49:08.381Z,42.75
2023-10-24T10:51:37.718Z,42.79
2023-10-24T10:54:30.981Z,42.56
2023-10-24T10:57:02.772Z,42.76
2023-10-24T10:59:58.986Z,42.35
2023-10-24T11:02:56.711Z,42.37
2023-10-24T11:05:38.598Z,42.49
2023-10-24T11:08:09.636Z,42.22
2023-10-24T11:10:55.043Z,42.33
2023-10-24T11:13:36.130Z,42.24
2023-10-24T11:16:04.101Z,42.89
2023-10-24T11:18:32.815Z,43.05
2023-10-24T11:20:59.943Z,43.25
2023-10-24T11:23:29.878Z,43.01
2023-10-24T11:25:56.704Z,43.12
2023-10-24T11:28:23.940Z,43.25
2023-10-24T11:30:50.956Z,42.89
2023-10-24T11:33:19.737Z,42.42
2023-10-24T11:35:49.191Z,42.90
2023-10-24T11:38:16.246Z,42.50
2023-10-24T11:40:47.357Z,42.62
2023-10-24T11:43:16.280Z,42.80
2023-10-24T11:45:43.180Z,42.53
2023-10-24T11:48:10.735Z,42.61
2023-10-24T11:50:55.690Z,42.21
2023-10-24T11:53:24.258Z,42.27
2023-10-24T11:55:51.511Z,42.68
2023-10-24T11:58:18.959Z,42.55
2023-10-24T12:00:45.787Z,42.23
2023-10-24T12:03:13.081Z,42.49
2023-10-24T12:05:52.576Z,42.44
2023-10-24T12:08:24.615Z,42.36
2023-10-24T12:10:56.090Z,41.93
2023-10-24T12:13:24.929Z,42.37
2023-10-24T12:15:52.615Z,42.23
2023-10-24T12:18:20.829Z,41.99
2023-10-24T12:20:50.920Z,42.15
2023-10-24T12:23:19.916Z,42.32
2023-10-24T12:25:47.094Z,42.21
2023-10-24T12:28:13.902Z,42.57
2023-10-24T12:30:44.136Z,42.32
2023-10-24T12:33:12.710Z,42.46
2023-10-24T12:35:39.430Z,42.22
2023-10-24T12:38:07.038Z,41.92
2023-10-24T12:40:34.183Z,42.37
2023-10-24T12:43:01.026Z,42.30
2023-10-24T12:45:27.839Z,41.94
2023-10-24T12:47:55.077Z,41.71
2023-10-24T12:50:21.967Z,41.67
2023-10-24T12:52:49.404Z,41.53
2023-10-24T12:55:16.765Z,41.68
2023-10-24T12:57:43.592Z,41.72
2023-10-24T13:00:10.664Z,41.53
2023-10-24T13:02:37.459Z,41.54
2023-10-24T13:05:04.443Z,41.60
2023-10-24T13:07:31.302Z,41.60
2023-10-24T13:09:58.236Z,41.63
2023-10-24T13:12:25.140Z,41.71
2023-10-24T13:14:51.905Z,41.73
2023-10-24T13:17:20.698Z,41.56
2023-10-24T13:19:48.665Z,41.53
2023-10-24T13:22:15.546Z,41.57
2023-10-24T13:24:42.285Z,41.60
2023-10-24T13:27:09.029Z,41.82
2023-10-24T13:29:35.779Z,41.83
2023-10-24T13:32:03.394Z,41.85
2023-10-24T13:37:01.364Z,41.84
2023-10-24T13:39:29.148Z,41.92
2023-10-24T13:41:55.926Z,42.39
2023-10-24T13:44:23.035Z,42.28
2023-10-24T13:46:56.308Z,42.52
2023-10-24T13:49:23.096Z,42.73
2023-10-24T13:51:50.879Z,43.18
2023-10-24T13:54:17.628Z,42.82
2023-10-24T13:56:44.675Z,43.08
2023-10-24T13:59:11.450Z,43.52
2023-10-24T14:01:38.671Z,43.06
2023-10-24T14:04:06.945Z,43.36
2023-10-24T14:06:33.733Z,43.18
2023-10-24T14:09:01.154Z,43.38
2023-10-24T14:11:28.215Z,43.53
2023-10-24T14:13:55.051Z,43.44
2023-10-24T14:16:22.905Z,43.69
2023-10-24T14:18:50.001Z,43.70
2023-10-24T14:21:17.163Z,44.19
2023-10-24T14:23:44.001Z,43.78
2023-10-24T14:26:12.590Z,44.31
2023-10-24T14:28:40.968Z,44.16
2023-10-24T14:31:07.803Z,44.29
2023-10-24T14:33:34.647Z,44.77
2023-10-24T14:36:02.670Z,45.07
2023-10-24T14:38:29.732Z,45.28
2023-10-24T14:40:58.665Z,45.50
2023-10-24T14:43:25.552Z,45.83
2023-10-24T14:45:53.399Z,46.39
2023-10-24T14:48:20.412Z,46.72
2023-10-24T14:50:47.212Z,47.01
2023-10-24T14:53:14.247Z,47.03
2023-10-24T14:55:41.784Z,47.75
2023-10-24T14:58:09.179Z,48.21
2023-10-24T15:00:37.338Z,48.52
2023-10-24T15:03:04.789Z,49.01
2023-10-24T15:05:31.657Z,49.15
2023-10-24T15:07:58.513Z,49.56
2023-10-24T15:10:25.332Z,49.52
2023-10-24T15:12:55.079Z,49.73
2023-10-24T15:15:24.301Z,51.39
2023-10-24T15:17:53.909Z,50.26
2023-10-24T15:20:20.986Z,52.93
2023-10-24T15:22:47.807Z,50.77
2023-10-24T15:25:14.991Z,51.11
2023-10-24T15:27:41.805Z,51.29
2023-10-24T15:30:10.991Z,51.55
2023-10-24T15:32:38.290Z,51.80
2023-10-24T15:35:08.897Z,52.46
2023-10-24T15:37:35.698Z,52.27
2023-10-24T15:40:02.481Z,52.45
2023-10-24T15:42:30.257Z,52.70
2023-10-24T15:44:59.741Z,52.63
2023-10-24T15:47:26.563Z,53.12
2023-10-24T15:49:56.554Z,53.42
2023-10-24T15:52:24.204Z,53.29
2023-10-24T15:54:51.093Z,53.84
2023-10-24T15:57:20.013Z,54.19
2023-10-24T15:59:47.862Z,54.56
2023-10-24T16:02:16.214Z,54.63
2023-10-24T16:04:44.662Z,54.94
2023-10-24T16:07:11.605Z,55.38
2023-10-24T16:09:38.468Z,55.70
2023-10-24T16:12:05.770Z,55.42
2023-10-24T16:14:32.602Z,55.87
2023-10-24T16:17:00.519Z,56.22
2023-10-24T16:19:27.732Z,56.29
2023-10-24T16:21:54.593Z,56.74
2023-10-24T16:24:21.390Z,57.01
2023-10-24T16:26:48.145Z,57.50
2023-10-24T16:29:15.674Z,57.58
2023-10-24T16:31:42.625Z,57.74
2023-10-24T16:34:09.462Z,57.84
2023-10-24T16:36:37.359Z,57.88
2023-10-24T16:39:05.883Z,58.00
2023-10-24T16:41:32.698Z,58.07
2023-10-24T16:44:03.469Z,58.20
2023-10-24T16:46:30.372Z,58.39
2023-10-24T16:48:57.173Z,58.50
2023-10-24T16:51:23.919Z,58.42
2023-10-24T16:53:51.038Z,58.50
2023-10-24T16:56:17.929Z,58.66
2023-10-24T16:58:44.731Z,58.90
2023-10-24T17:01:11.729Z,58.85
2023-10-24T17:03:38.782Z,59.00
2023-10-24T17:06:05.789Z,59.18
2023-10-24T17:08:33.571Z,59.15
2023-10-24T17:11:03.061Z,59.32
2023-10-24T17:13:30.011Z,59.32
2023-10-24T17:15:57.820Z,59.23
2023-10-24T17:18:26.110Z,59.57
2023-10-24T17:20:53.352Z,59.64
2023-10-24T17:23:20.648Z,59.61
2023-10-24T17:25:47.613Z,59.79
2023-10-24T17:28:20.314Z,59.75
2023-10-24T17:30:48.252Z,59.76
2023-10-24T17:33:15.103Z,60.08
2023-10-24T17:35:43.775Z,60.17
2023-10-24T17:38:10.558Z,60.33
2023-10-24T17:40:42.535Z,60.31
2023-10-24T17:43:09.469Z,60.43
2023-10-24T17:45:45.528Z,60.49
2023-10-24T17:48:12.583Z,60.51
2023-10-24T17:50:40.646Z,60.74
2023-10-24T17:53:07.562Z,60.68
2023-10-24T17:55:38.873Z,60.88
2023-10-24T17:58:06.522Z,60.73
2023-10-24T18:00:34.811Z,60.98
2023-10-24T18:03:02.264Z,60.97
2023-10-24T18:05:30.135Z,60.77
2023-10-24T18:07:57.326Z,61.03
2023-10-24T18:10:24.260Z,61.19
2023-10-24T18:12:52.310Z,61.13
2023-10-24T18:15:20.395Z,61.18
2023-10-24T18:17:47.193Z,61.37
2023-10-24T18:20:14.015Z,61.34
2023-10-24T18:22:42.125Z,61.47
2023-10-24T18:25:11.871Z,61.44
2023-10-24T18:27:38.654Z,61.93
2023-10-24T18:30:07.185Z,61.84
2023-10-24T18:32:35.140Z,62.02
2023-10-24T18:35:02.197Z,61.91
2023-10-24T18:37:29.348Z,62.25
2023-10-24T18:39:56.141Z,62.24
2023-10-24T18:42:30.306Z,62.44
2023-10-24T18:47:26.319Z,62.59
2023-10-24T18:49:53.197Z,62.64
2023-10-24T18:52:20.136Z,62.91
2023-10-24T18:54:46.916Z,62.74
2023-10-24T18:57:13.659Z,62.88
2023-10-24T18:59:40.664Z,62.69
2023-10-24T19:02:07.836Z,62.70
2023-10-24T19:04:36.643Z,62.82
2023-10-24T19:07:04.497Z,62.74
2023-10-24T19:09:31.377Z,62.68
2023-10-24T19:11:58.705Z,62.64
2023-10-24T19:14:25.696Z,62.85
2023-10-24T19:16:52.803Z,62.78
2023-10-24T19:19:19.934Z,62.79
2023-10-24T19:21:47.055Z,62.63
2023-10-24T19:24:14.337Z,62.79
2023-10-24T19:26:46.014Z,62.78
2023-10-24T19:29:13.031Z,62.80
2023-10-24T19:31:40.109Z,62.82
2023-10-24T19:34:07.706Z,63.04
2023-10-24T19:36:34.945Z,63.05
2023-10-24T19:39:02.041Z,63.20
2023-10-24T19:41:29.825Z,63.25
2023-10-24T19:43:56.905Z,63.33
2023-10-24T19:46:25.353Z,63.30
2023-10-24T19:48:55.187Z,63.44
2023-10-24T19:51:22.197Z,63.33
2023-10-24T19:53:49.177Z,63.56
2023-10-24T19:56:18.047Z,63.86
2023-10-24T19:58:47.653Z,63.86
2023-10-24T20:01:16.584Z,64.05
2023-10-24T20:03:44.059Z,64.09
2023-10-24T20:06:12.492Z,64.00
2023-10-24T20:08:44.634Z,64.24
2023-10-24T20:12:32.334Z,64.67
2023-10-24T20:13:59.709Z,64.95
2023-10-24T20:16:31.600Z,65.03
2023-10-24T20:19:02.575Z,65.36
2023-10-24T20:21:32.536Z,65.29
2023-10-24T20:24:03.221Z,65.46
2023-10-24T20:26:31.054Z,65.45
2023-10-24T20:29:00.097Z,65.58
2023-10-24T20:31:26.930Z,65.90
2023-10-24T20:33:54.292Z,66.05
2023-10-24T20:36:21.028Z,66.04
2023-10-24T20:38:47.747Z,66.21
2023-10-24T20:41:16.476Z,66.35
2023-10-24T20:43:43.188Z,66.51
2023-10-24T20:46:10.726Z,66.63
2023-10-24T20:48:37.587Z,66.71
2023-10-24T20:51:04.396Z,66.73
2023-10-24T20:53:31.272Z,67.13
2023-10-24T20:56:01.051Z,67.03
2023-10-24T20:58:27.711Z,68.69
2023-10-24T21:00:54.736Z,67.55
2023-10-24T21:03:21.597Z,67.41
2023-10-24T21:05:48.999Z,67.63
2023-10-24T21:08:15.780Z,67.59
2023-10-24T21:10:45.477Z,67.70
2023-10-24T21:13:13.177Z,67.64
2023-10-24T21:15:41.589Z,67.93
2023-10-24T21:18:08.454Z,67.64
2023-10-24T21:20:38.540Z,67.86
2023-10-24T21:23:05.332Z,67.90
2023-10-24T21:25:32.118Z,68.13
2023-10-24T21:27:58.972Z,67.97
2023-10-24T21:30:25.755Z,68.33
2023-10-24T21:32:52.604Z,68.17
2023-10-24T21:35:19.279Z,68.34
2023-10-24T21:37:46.107Z,68.30
2023-10-24T21:40:14.490Z,68.53
2023-10-24T21:42:42.142Z,68.61
2023-10-24T21:45:09.224Z,68.72
2023-10-24T21:47:36.285Z,68.93
2023-10-24T21:50:03.371Z,69.07
2023-10-24T21:52:30.229Z,69.02
2023-10-24T21:54:57.260Z,68.90
2023-10-24T21:57:24.054Z,69.13
2023-10-24T21:59:53.252Z,69.20
2023-10-24T22:02:20.268Z,69.51
2023-10-24T22:04:47.121Z,69.45
2023-10-24T22:07:13.851Z,69.29
2023-10-24T22:09:40.852Z,69.53
2023-10-24T22:12:08.192Z,69.65
2023-10-24T22:14:35.278Z,69.79
2023-10-24T22:17:02.230Z,69.74
2023-10-24T22:19:29.049Z,69.76
2023-10-24T22:21:55.786Z,69.60
2023-10-24T22:24:22.570Z,69.79
2023-10-24T22:26:49.293Z,69.56
2023-10-24T22:29:16.910Z,69.70
2023-10-24T22:31:43.684Z,69.80
2023-10-24T22:34:11.265Z,69.88
2023-10-24T22:36:38.046Z,69.96
2023-10-24T22:39:05.429Z,70.20
2023-10-24T22:41:32.512Z,70.39
2023-10-24T22:43:59.236Z,70.34
2023-10-24T22:46:26.142Z,70.14
2023-10-24T22:48:52.951Z,70.23
2023-10-24T22:51:20.081Z,70.33
2023-10-24T22:53:47.033Z,70.29
2023-10-24T22:56:14.111Z,70.32
2023-10-24T22:58:40.853Z,70.45
2023-10-24T23:01:11.991Z,70.41
2023-10-24T23:03:39.060Z,70.42
2023-10-24T23:06:05.843Z,70.57
2023-10-24T23:08:32.616Z,70.69
2023-10-24T23:11:09.069Z,70.77
2023-10-24T23:13:36.477Z,70.66
2023-10-24T23:16:08.990Z,70.72
2023-10-24T23:18:41.730Z,71.08
2023-10-24T23:21:08.600Z,71.01
2023-10-24T23:23:38.120Z,70.94
2023-10-24T23:26:08.943Z,70.90
2023-10-24T23:28:35.798Z,70.90
2023-10-24T23:31:02.665Z,70.86
2023-10-24T23:33:29.459Z,70.98
2023-10-24T23:35:56.210Z,70.88
2023-10-24T23:38:23.614Z,71.05
2023-10-24T23:40:50.427Z,70.88
2023-10-24T23:43:17.128Z,71.22
2023-10-24T23:45:44.148Z,71.07
2023-10-24T23:48:11.050Z,71.18
2023-10-24T23:50:38.290Z,71.03
2023-10-24T23:53:06.813Z,71.02
2023-10-24T23:55:37.242Z,71.02
2023-10-24T23:58:05.460Z,71.19
